sensor_id;sensor_type;location;lat;lon;timestamp;pressure;altitude;pressure_sealevel;temperature;humidity
3960;BME280;1994;48.640;8.894;2022-09-27T00:02:22;94456.00;;;9.88;100.00
3960;BME280;1994;48.640;8.894;2022-09-27T00:04:48;94450.84;;;9.88;100.00
3960;BME280;1994;48.640;8.894;2022-09-27T00:07:13;94453.09;;;9.99;100.00
3960;BME280;1994;48.640;8.894;2022-09-27T00:09:39;94443.28;;;9.96;100.00
3960;BME280;1994;48.640;8.894;2022-09-27T00:12:05;94445.59;;;9.98;100.00
3960;BME280;1994;48.640;8.894;2022-09-27T00:14:31;94447.44;;;9.92;100.00
3960;BME280;1994;48.640;8.894;2022-09-27T00:16:56;94438.56;;;10.03;100.00
3960;BME280;1994;48.640;8.894;2022-09-27T00:19:22;94442.97;;;10.03;100.00
3960;BME280;1994;48.640;8.894;2022-09-27T00:21:49;94446.59;;;10.02;100.00
3960;BME280;1994;48.640;8.894;2022-09-27T00:24:18;94441.13;;;10.08;100.00
3960;BME280;1994;48.640;8.894;2022-09-27T00:26:45;94441.41;;;10.02;100.00
3960;BME280;1994;48.640;8.894;2022-09-27T00:29:13;94439.41;;;9.94;100.00
3960;BME280;1994;48.640;8.894;2022-09-27T00:31:40;94441.97;;;9.99;100.00
3960;BME280;1994;48.640;8.894;2022-09-27T00:34:06;94436.78;;;9.99;100.00
3960;BME280;1994;48.640;8.894;2022-09-27T00:36:33;94425.44;;;9.95;100.00
3960;BME280;1994;48.640;8.894;2022-09-27T00:39:00;94421.84;;;9.91;100.00
3960;BME280;1994;48.640;8.894;2022-09-27T00:41:32;94422.84;;;9.95;100.00
3960;BME280;1994;48.640;8.894;2022-09-27T00:44:03;94417.63;;;10.00;100.00
3960;BME280;1994;48.640;8.894;2022-09-27T00:46:43;94410.91;;;10.04;100.00
3960;BME280;1994;48.640;8.894;2022-09-27T00:49:25;94406.75;;;10.03;100.00
3960;BME280;1994;48.640;8.894;2022-09-27T00:52:01;94413.03;;;9.97;100.00
3960;BME280;1994;48.640;8.894;2022-09-27T00:54:29;94409.63;;;10.01;100.00
3960;BME280;1994;48.640;8.894;2022-09-27T00:56:56;94403.91;;;10.04;100.00
3960;BME280;1994;48.640;8.894;2022-09-27T00:59:28;94407.28;;;10.00;100.00
3960;BME280;1994;48.640;8.894;2022-09-27T01:01:55;94408.06;;;10.00;100.00
3960;BME280;1994;48.640;8.894;2022-09-27T01:04:25;94414.53;;;10.08;100.00
3960;BME280;1994;48.640;8.894;2022-09-27T01:06:52;94408.56;;;10.02;100.00
3960;BME280;1994;48.640;8.894;2022-09-27T01:09:18;94412.94;;;10.07;100.00
3960;BME280;1994;48.640;8.894;2022-09-27T01:15:20;94401.28;;;10.09;100.00
3960;BME280;1994;48.640;8.894;2022-09-27T01:21:07;94406.44;;;10.14;100.00
3960;BME280;1994;48.640;8.894;2022-09-27T01:24:13;94397.81;;;10.24;100.00
3960;BME280;1994;48.640;8.894;2022-09-27T01:27:36;94400.41;;;10.24;100.00
3960;BME280;1994;48.640;8.894;2022-09-27T01:30:22;94395.72;;;10.26;100.00
3960;BME280;1994;48.640;8.894;2022-09-27T01:44:22;94396.16;;;10.33;100.00
3960;BME280;1994;48.640;8.894;2022-09-27T01:46:54;94396.97;;;10.33;100.00
3960;BME280;1994;48.640;8.894;2022-09-27T01:49:59;94398.66;;;10.43;100.00
3960;BME280;1994;48.640;8.894;2022-09-27T01:52:37;94390.00;;;10.29;100.00
3960;BME280;1994;48.640;8.894;2022-09-27T01:55:08;94402.34;;;10.37;100.00
3960;BME280;1994;48.640;8.894;2022-09-27T01:57:42;94410.94;;;10.32;100.00
3960;BME280;1994;48.640;8.894;2022-09-27T02:00:12;94405.00;;;10.32;100.00
3960;BME280;1994;48.640;8.894;2022-09-27T02:03:07;94417.84;;;10.42;100.00
3960;BME280;1994;48.640;8.894;2022-09-27T02:05:45;94421.34;;;10.51;100.00
3960;BME280;1994;48.640;8.894;2022-09-27T02:08:25;94420.22;;;10.62;100.00
3960;BME280;1994;48.640;8.894;2022-09-27T02:10:54;94434.13;;;10.71;100.00
3960;BME280;1994;48.640;8.894;2022-09-27T02:13:32;94435.66;;;10.72;100.00
3960;BME280;1994;48.640;8.894;2022-09-27T02:24:41;94432.09;;;10.68;100.00
3960;BME280;1994;48.640;8.894;2022-09-27T02:27:23;94442.94;;;10.70;100.00
3960;BME280;1994;48.640;8.894;2022-09-27T02:30:02;94434.69;;;10.68;100.00
3960;BME280;1994;48.640;8.894;2022-09-27T02:32:30;94440.84;;;10.72;100.00
3960;BME280;1994;48.640;8.894;2022-09-27T02:35:00;94446.78;;;10.72;100.00
3960;BME280;1994;48.640;8.894;2022-09-27T02:37:28;94439.84;;;10.68;100.00
3960;BME280;1994;48.640;8.894;2022-09-27T02:39:56;94447.66;;;10.63;96.98
3960;BME280;1994;48.640;8.894;2022-09-27T02:42:22;94446.34;;;10.65;96.73
3960;BME280;1994;48.640;8.894;2022-09-27T02:44:49;94447.66;;;10.63;96.21
3960;BME280;1994;48.640;8.894;2022-09-27T02:47:59;94453.88;;;10.62;96.42
3960;BME280;1994;48.640;8.894;2022-09-27T02:53:44;94455.97;;;10.60;94.58
3960;BME280;1994;48.640;8.894;2022-09-27T02:56:33;94466.38;;;10.55;94.37
3960;BME280;1994;48.640;8.894;2022-09-27T02:59:15;94469.53;;;10.52;94.03
3960;BME280;1994;48.640;8.894;2022-09-27T03:02:23;94470.00;;;10.54;93.49
3960;BME280;1994;48.640;8.894;2022-09-27T03:05:00;94470.00;;;10.54;92.68
3960;BME280;1994;48.640;8.894;2022-09-27T03:07:27;94467.78;;;10.42;92.63
3960;BME280;1994;48.640;8.894;2022-09-27T03:09:53;94476.84;;;10.40;92.60
3960;BME280;1994;48.640;8.894;2022-09-27T03:12:20;94466.44;;;10.45;91.30
3960;BME280;1994;48.640;8.894;2022-09-27T03:14:59;94480.00;;;10.37;92.24
3960;BME280;1994;48.640;8.894;2022-09-27T03:17:26;94487.28;;;10.35;93.19
3960;BME280;1994;48.640;8.894;2022-09-27T03:19:52;94490.13;;;10.33;93.10
3960;BME280;1994;48.640;8.894;2022-09-27T03:22:18;94498.16;;;10.32;93.54
3960;BME280;1994;48.640;8.894;2022-09-27T03:24:43;94506.41;;;10.34;94.54
3960;BME280;1994;48.640;8.894;2022-09-27T03:27:11;94506.97;;;10.31;94.04
3960;BME280;1994;48.640;8.894;2022-09-27T03:29:36;94515.66;;;10.40;94.09
3960;BME280;1994;48.640;8.894;2022-09-27T03:32:03;94499.91;;;10.36;93.74
3960;BME280;1994;48.640;8.894;2022-09-27T03:34:29;94497.09;;;10.33;94.41
3960;BME280;1994;48.640;8.894;2022-09-27T03:36:55;94509.28;;;10.32;94.65
3960;BME280;1994;48.640;8.894;2022-09-27T03:39:21;94502.78;;;10.35;94.08
3960;BME280;1994;48.640;8.894;2022-09-27T03:41:46;94502.78;;;10.35;94.31
3960;BME280;1994;48.640;8.894;2022-09-27T03:44:12;94507.03;;;10.21;94.88
3960;BME280;1994;48.640;8.894;2022-09-27T03:46:38;94494.50;;;10.33;94.26
3960;BME280;1994;48.640;8.894;2022-09-27T03:49:04;94504.09;;;10.32;94.81
3960;BME280;1994;48.640;8.894;2022-09-27T03:51:29;94500.47;;;10.33;94.87
3960;BME280;1994;48.640;8.894;2022-09-27T03:53:55;94496.59;;;10.31;94.24
3960;BME280;1994;48.640;8.894;2022-09-27T03:56:21;94495.06;;;10.30;94.73
3960;BME280;1994;48.640;8.894;2022-09-27T03:58:47;94496.16;;;10.24;94.85
3960;BME280;1994;48.640;8.894;2022-09-27T04:01:14;94496.09;;;10.29;94.89
3960;BME280;1994;48.640;8.894;2022-09-27T04:03:40;94498.44;;;10.25;95.12
3960;BME280;1994;48.640;8.894;2022-09-27T04:06:06;94501.09;;;10.15;95.02
3960;BME280;1994;48.640;8.894;2022-09-27T04:08:32;94510.66;;;10.20;94.75
3960;BME280;1994;48.640;8.894;2022-09-27T04:10:58;94509.19;;;10.09;95.51
3960;BME280;1994;48.640;8.894;2022-09-27T04:13:24;94517.53;;;9.91;95.53
3960;BME280;1994;48.640;8.894;2022-09-27T04:15:50;94522.47;;;9.87;95.76
3960;BME280;1994;48.640;8.894;2022-09-27T04:18:16;94521.69;;;9.92;96.16
3960;BME280;1994;48.640;8.894;2022-09-27T04:20:41;94519.56;;;9.99;96.24
3960;BME280;1994;48.640;8.894;2022-09-27T04:23:07;94522.78;;;9.81;96.12
3960;BME280;1994;48.640;8.894;2022-09-27T04:25:33;94515.97;;;9.90;95.96
3960;BME280;1994;48.640;8.894;2022-09-27T04:28:00;94520.69;;;9.83;95.66
3960;BME280;1994;48.640;8.894;2022-09-27T04:30:29;94515.75;;;9.86;96.08
3960;BME280;1994;48.640;8.894;2022-09-27T04:32:55;94518.13;;;9.78;96.42
3960;BME280;1994;48.640;8.894;2022-09-27T04:35:21;94521.78;;;9.72;95.97
3960;BME280;1994;48.640;8.894;2022-09-27T04:38:05;94517.03;;;9.89;95.09
3960;BME280;1994;48.640;8.894;2022-09-27T04:40:34;94519.84;;;9.92;94.80
3960;BME280;1994;48.640;8.894;2022-09-27T04:43:01;94524.50;;;9.95;94.12
3960;BME280;1994;48.640;8.894;2022-09-27T04:45:29;94523.53;;;9.81;93.45
3960;BME280;1994;48.640;8.894;2022-09-27T04:47:55;94530.19;;;9.92;93.10
3960;BME280;1994;48.640;8.894;2022-09-27T04:50:20;94527.34;;;9.94;93.62
3960;BME280;1994;48.640;8.894;2022-09-27T04:52:51;94533.03;;;9.91;93.54
3960;BME280;1994;48.640;8.894;2022-09-27T04:55:21;94539.78;;;9.92;94.06
3960;BME280;1994;48.640;8.894;2022-09-27T04:57:47;94539.00;;;9.91;93.46
3960;BME280;1994;48.640;8.894;2022-09-27T05:00:14;94543.66;;;9.94;93.76
3960;BME280;1994;48.640;8.894;2022-09-27T05:02:43;94547.59;;;9.77;93.97
3960;BME280;1994;48.640;8.894;2022-09-27T05:05:09;94553.28;;;9.74;94.36
3960;BME280;1994;48.640;8.894;2022-09-27T05:07:37;94546.63;;;9.63;94.79
3960;BME280;1994;48.640;8.894;2022-09-27T05:10:04;94546.19;;;9.46;94.83
3960;BME280;1994;48.640;8.894;2022-09-27T05:12:30;94551.34;;;9.41;95.95
3960;BME280;1994;48.640;8.894;2022-09-27T05:14:56;94552.94;;;9.37;96.30
3960;BME280;1994;48.640;8.894;2022-09-27T05:17:22;94561.19;;;9.39;96.30
3960;BME280;1994;48.640;8.894;2022-09-27T05:19:49;94563.81;;;9.29;96.91
3960;BME280;1994;48.640;8.894;2022-09-27T05:22:15;94548.88;;;9.16;97.24
3960;BME280;1994;48.640;8.894;2022-09-27T05:24:41;94556.59;;;9.26;97.48
3960;BME280;1994;48.640;8.894;2022-09-27T05:27:09;94563.31;;;9.22;98.13
3960;BME280;1994;48.640;8.894;2022-09-27T05:29:37;94568.72;;;9.20;97.91
3960;BME280;1994;48.640;8.894;2022-09-27T05:32:03;94578.81;;;9.27;97.85
3960;BME280;1994;48.640;8.894;2022-09-27T05:34:29;94584.00;;;9.17;97.93
3960;BME280;1994;48.640;8.894;2022-09-27T05:36:57;94600.53;;;9.11;97.59
3960;BME280;1994;48.640;8.894;2022-09-27T05:39:23;94593.53;;;9.06;97.78
3960;BME280;1994;48.640;8.894;2022-09-27T05:41:49;94598.19;;;9.09;96.76
3960;BME280;1994;48.640;8.894;2022-09-27T05:44:16;94610.84;;;9.16;97.39
3960;BME280;1994;48.640;8.894;2022-09-27T05:46:42;94613.44;;;9.16;95.70
3960;BME280;1994;48.640;8.894;2022-09-27T05:49:08;94618.56;;;9.31;96.22
3960;BME280;1994;48.640;8.894;2022-09-27T05:51:34;94618.03;;;9.39;95.47
3960;BME280;1994;48.640;8.894;2022-09-27T05:53:59;94619.56;;;9.50;95.55
3960;BME280;1994;48.640;8.894;2022-09-27T05:56:25;94631.19;;;9.57;95.17
3960;BME280;1994;48.640;8.894;2022-09-27T05:58:52;94623.13;;;9.64;95.20
3960;BME280;1994;48.640;8.894;2022-09-27T06:01:18;94636.34;;;9.62;94.69
3960;BME280;1994;48.640;8.894;2022-09-27T06:03:43;94634.00;;;9.71;94.39
3960;BME280;1994;48.640;8.894;2022-09-27T06:06:12;94638.09;;;9.77;93.82
3960;BME280;1994;48.640;8.894;2022-09-27T06:08:40;94634.19;;;9.84;92.51
3960;BME280;1994;48.640;8.894;2022-09-27T06:11:11;94638.81;;;9.92;91.78
3960;BME280;1994;48.640;8.894;2022-09-27T06:13:38;94642.16;;;9.98;91.94
3960;BME280;1994;48.640;8.894;2022-09-27T06:16:05;94646.78;;;10.01;91.03
3960;BME280;1994;48.640;8.894;2022-09-27T06:18:31;94644.75;;;10.03;90.96
3960;BME280;1994;48.640;8.894;2022-09-27T06:21:03;94649.91;;;10.03;90.76
3960;BME280;1994;48.640;8.894;2022-09-27T06:23:30;94656.66;;;10.04;89.41
3960;BME280;1994;48.640;8.894;2022-09-27T06:26:04;94660.28;;;10.08;90.40
3960;BME280;1994;48.640;8.894;2022-09-27T06:28:31;94660.78;;;10.00;90.26
3960;BME280;1994;48.640;8.894;2022-09-27T06:30:59;94660.03;;;9.99;89.41
3960;BME280;1994;48.640;8.894;2022-09-27T06:33:26;94665.44;;;10.08;89.13
3960;BME280;1994;48.640;8.894;2022-09-27T06:35:55;94655.34;;;10.06;87.68
3960;BME280;1994;48.640;8.894;2022-09-27T06:38:21;94665.94;;;10.10;86.91
3960;BME280;1994;48.640;8.894;2022-09-27T06:40:48;94665.94;;;10.10;87.58
3960;BME280;1994;48.640;8.894;2022-09-27T06:43:16;94666.44;;;10.17;87.88
3960;BME280;1994;48.640;8.894;2022-09-27T06:45:43;94662.75;;;10.28;87.25
3960;BME280;1994;48.640;8.894;2022-09-27T06:48:10;94670.50;;;10.33;86.58
3960;BME280;1994;48.640;8.894;2022-09-27T06:50:42;94668.91;;;10.42;84.40
3960;BME280;1994;48.640;8.894;2022-09-27T06:53:10;94664.66;;;10.56;84.94
3960;BME280;1994;48.640;8.894;2022-09-27T06:55:38;94674.97;;;10.66;83.96
3960;BME280;1994;48.640;8.894;2022-09-27T06:58:04;94675.53;;;10.63;84.54
3960;BME280;1994;48.640;8.894;2022-09-27T07:00:50;94683.31;;;10.58;84.23
3960;BME280;1994;48.640;8.894;2022-09-27T07:03:17;94689.00;;;10.55;84.58
3960;BME280;1994;48.640;8.894;2022-09-27T07:06:03;94691.09;;;10.53;84.68
3960;BME280;1994;48.640;8.894;2022-09-27T07:08:29;94688.00;;;10.51;84.92
3960;BME280;1994;48.640;8.894;2022-09-27T07:11:03;94696.25;;;10.63;84.81
3960;BME280;1994;48.640;8.894;2022-09-27T07:13:30;94700.78;;;10.81;82.94
3960;BME280;1994;48.640;8.894;2022-09-27T07:16:01;94704.88;;;10.87;82.52
3960;BME280;1994;48.640;8.894;2022-09-27T07:18:28;94710.94;;;11.11;83.44
3960;BME280;1994;48.640;8.894;2022-09-27T07:20:53;94715.00;;;11.22;81.08
3960;BME280;1994;48.640;8.894;2022-09-27T07:23:19;94716.94;;;11.40;81.43
3960;BME280;1994;48.640;8.894;2022-09-27T07:25:46;94718.84;;;11.58;80.62
3960;BME280;1994;48.640;8.894;2022-09-27T07:28:16;94718.81;;;11.68;79.60
3960;BME280;1994;48.640;8.894;2022-09-27T07:30:43;94725.44;;;11.79;79.98
3960;BME280;1994;48.640;8.894;2022-09-27T07:33:09;94719.34;;;11.65;78.76
3960;BME280;1994;48.640;8.894;2022-09-27T07:35:40;94728.78;;;11.51;79.66
3960;BME280;1994;48.640;8.894;2022-09-27T07:38:06;94726.41;;;11.88;81.43
3960;BME280;1994;48.640;8.894;2022-09-27T07:40:39;94729.53;;;11.85;80.24
3960;BME280;1994;48.640;8.894;2022-09-27T07:43:05;94737.41;;;11.75;80.11
3960;BME280;1994;48.640;8.894;2022-09-27T07:45:31;94741.09;;;11.69;78.98
3960;BME280;1994;48.640;8.894;2022-09-27T07:47:57;94736.97;;;11.68;78.80
3960;BME280;1994;48.640;8.894;2022-09-27T07:50:23;94750.97;;;11.67;78.96
3960;BME280;1994;48.640;8.894;2022-09-27T07:52:49;94741.59;;;12.23;77.75
3960;BME280;1994;48.640;8.894;2022-09-27T07:55:18;94741.72;;;13.34;74.73
3960;BME280;1994;48.640;8.894;2022-09-27T07:57:44;94743.03;;;13.82;69.82
3960;BME280;1994;48.640;8.894;2022-09-27T08:00:16;94750.22;;;14.17;69.85
3960;BME280;1994;48.640;8.894;2022-09-27T08:02:44;94757.44;;;14.06;67.59
3960;BME280;1994;48.640;8.894;2022-09-27T08:05:11;94766.44;;;13.82;70.17
3960;BME280;1994;48.640;8.894;2022-09-27T08:07:39;94763.94;;;14.36;68.60
3960;BME280;1994;48.640;8.894;2022-09-27T08:10:06;94758.94;;;14.53;67.74
3960;BME280;1994;48.640;8.894;2022-09-27T08:12:33;94763.19;;;14.49;67.64
3960;BME280;1994;48.640;8.894;2022-09-27T08:14:59;94769.75;;;14.33;68.79
3960;BME280;1994;48.640;8.894;2022-09-27T08:17:29;94776.34;;;14.12;67.05
3960;BME280;1994;48.640;8.894;2022-09-27T08:19:55;94778.97;;;13.48;70.13
3960;BME280;1994;48.640;8.894;2022-09-27T08:22:22;94787.63;;;13.25;71.99
3960;BME280;1994;48.640;8.894;2022-09-27T08:24:48;94785.22;;;12.68;72.34
3960;BME280;1994;48.640;8.894;2022-09-27T08:27:15;94787.41;;;12.09;76.72
3960;BME280;1994;48.640;8.894;2022-09-27T08:29:41;94796.91;;;11.95;75.25
3960;BME280;1994;48.640;8.894;2022-09-27T08:32:11;94806.09;;;11.44;77.77
3960;BME280;1994;48.640;8.894;2022-09-27T08:34:37;94808.63;;;11.49;78.81
3960;BME280;1994;48.640;8.894;2022-09-27T08:37:04;94808.06;;;11.57;78.54
3960;BME280;1994;48.640;8.894;2022-09-27T08:39:30;94806.38;;;11.76;79.40
3960;BME280;1994;48.640;8.894;2022-09-27T08:47:52;94799.44;;;11.33;77.33
3960;BME280;1994;48.640;8.894;2022-09-27T08:55:57;94810.66;;;11.57;76.20
3960;BME280;1994;48.640;8.894;2022-09-27T09:01:03;94813.00;;;11.92;76.35
3960;BME280;1994;48.640;8.894;2022-09-27T09:03:35;94808.72;;;12.06;76.46
3960;BME280;1994;48.640;8.894;2022-09-27T09:08:51;94813.28;;;14.14;69.56
3960;BME280;1994;48.640;8.894;2022-09-27T09:26:38;94804.06;;;17.68;54.65
3960;BME280;1994;48.640;8.894;2022-09-27T09:30:01;94807.09;;;17.36;56.43
3960;BME280;1994;48.640;8.894;2022-09-27T09:35:25;94799.97;;;16.55;55.91
3960;BME280;1994;48.640;8.894;2022-09-27T09:37:58;94800.25;;;14.86;63.09
3960;BME280;1994;48.640;8.894;2022-09-27T09:40:36;94803.09;;;15.12;62.65
3960;BME280;1994;48.640;8.894;2022-09-27T09:43:38;94800.75;;;15.81;60.92
3960;BME280;1994;48.640;8.894;2022-09-27T09:49:15;94794.25;;;16.45;59.80
3960;BME280;1994;48.640;8.894;2022-09-27T09:51:45;94783.84;;;17.77;57.25
3960;BME280;1994;48.640;8.894;2022-09-27T09:57:03;94780.13;;;15.71;59.80
3960;BME280;1994;48.640;8.894;2022-09-27T10:00:13;94773.81;;;16.47;59.75
3960;BME280;1994;48.640;8.894;2022-09-27T10:02:42;94789.44;;;15.64;58.63
3960;BME280;1994;48.640;8.894;2022-09-27T10:05:14;94784.22;;;14.39;62.91
3960;BME280;1994;48.640;8.894;2022-09-27T10:07:41;94783.44;;;13.61;68.84
3960;BME280;1994;48.640;8.894;2022-09-27T10:10:13;94786.84;;;13.43;68.27
3960;BME280;1994;48.640;8.894;2022-09-27T10:12:40;94773.75;;;13.48;69.27
3960;BME280;1994;48.640;8.894;2022-09-27T10:15:06;94779.00;;;12.87;70.22
3960;BME280;1994;48.640;8.894;2022-09-27T10:17:39;94786.56;;;12.42;73.59
3960;BME280;1994;48.640;8.894;2022-09-27T10:20:07;94787.94;;;12.11;72.91
3960;BME280;1994;48.640;8.894;2022-09-27T10:22:47;94785.38;;;12.06;75.36
3960;BME280;1994;48.640;8.894;2022-09-27T10:25:14;94778.78;;;11.90;74.80
3960;BME280;1994;48.640;8.894;2022-09-27T10:27:47;94772.28;;;11.92;75.39
3960;BME280;1994;48.640;8.894;2022-09-27T10:30:30;94779.53;;;11.62;76.57
3960;BME280;1994;48.640;8.894;2022-09-27T10:33:05;94783.16;;;11.66;78.40
3960;BME280;1994;48.640;8.894;2022-09-27T10:35:42;94784.28;;;11.50;75.94
3960;BME280;1994;48.640;8.894;2022-09-27T10:40:46;94777.97;;;11.66;74.94
3960;BME280;1994;48.640;8.894;2022-09-27T10:43:34;94778.00;;;11.56;74.91
3960;BME280;1994;48.640;8.894;2022-09-27T10:46:20;94779.31;;;11.53;73.89
3960;BME280;1994;48.640;8.894;2022-09-27T10:49:12;94773.16;;;11.44;74.46
3960;BME280;1994;48.640;8.894;2022-09-27T10:51:43;94769.25;;;11.47;73.57
3960;BME280;1994;48.640;8.894;2022-09-27T10:57:29;94763.91;;;11.72;73.28
3960;BME280;1994;48.640;8.894;2022-09-27T10:59:58;94767.59;;;11.66;74.09
3960;BME280;1994;48.640;8.894;2022-09-27T11:02:32;94757.25;;;11.56;73.26
3960;BME280;1994;48.640;8.894;2022-09-27T11:05:35;94756.31;;;11.42;74.24
3960;BME280;1994;48.640;8.894;2022-09-27T11:13:32;94751.03;;;11.57;75.95
3960;BME280;1994;48.640;8.894;2022-09-27T11:22:43;94746.66;;;11.52;79.32
3960;BME280;1994;48.640;8.894;2022-09-27T11:25:49;94748.44;;;11.57;81.67
3960;BME280;1994;48.640;8.894;2022-09-27T11:31:50;94745.28;;;11.31;84.98
3960;BME280;1994;48.640;8.894;2022-09-27T11:41:03;94734.81;;;11.75;84.62
3960;BME280;1994;48.640;8.894;2022-09-27T11:43:09;94734.44;;;12.15;83.94
3960;BME280;1994;48.640;8.894;2022-09-27T11:54:32;94735.50;;;11.18;86.72
3960;BME280;1994;48.640;8.894;2022-09-27T11:57:16;94733.81;;;11.37;89.38
3960;BME280;1994;48.640;8.894;2022-09-27T12:06:01;94725.63;;;11.59;87.95
3960;BME280;1994;48.640;8.894;2022-09-27T12:09:05;94725.44;;;11.45;87.84
3960;BME280;1994;48.640;8.894;2022-09-27T12:14:38;94722.34;;;11.77;87.68
3960;BME280;1994;48.640;8.894;2022-09-27T12:17:13;94731.06;;;11.86;89.06
3960;BME280;1994;48.640;8.894;2022-09-27T12:19:45;94718.50;;;11.98;87.75
3960;BME280;1994;48.640;8.894;2022-09-27T12:22:29;94718.28;;;12.18;87.38
3960;BME280;1994;48.640;8.894;2022-09-27T12:24:57;94722.47;;;12.14;85.25
3960;BME280;1994;48.640;8.894;2022-09-27T12:30:33;94721.03;;;11.46;86.73
3960;BME280;1994;48.640;8.894;2022-09-27T12:33:25;94709.81;;;11.22;86.91
3960;BME280;1994;48.640;8.894;2022-09-27T12:36:00;94712.91;;;11.24;85.86
3960;BME280;1994;48.640;8.894;2022-09-27T12:41:23;94697.69;;;11.17;86.81
3960;BME280;1994;48.640;8.894;2022-09-27T12:43:49;94703.72;;;11.08;87.11
3960;BME280;1994;48.640;8.894;2022-09-27T12:52:12;94697.81;;;11.31;88.29
3960;BME280;1994;48.640;8.894;2022-09-27T13:00:58;94697.38;;;11.24;86.99
3960;BME280;1994;48.640;8.894;2022-09-27T13:06:47;94689.56;;;11.29;86.87
3960;BME280;1994;48.640;8.894;2022-09-27T13:09:25;94680.88;;;11.10;88.96
3960;BME280;1994;48.640;8.894;2022-09-27T13:12:12;94688.53;;;11.25;87.26
3960;BME280;1994;48.640;8.894;2022-09-27T13:22:53;94674.09;;;12.83;80.16
3960;BME280;1994;48.640;8.894;2022-09-27T13:25:54;94675.56;;;12.71;79.92
3960;BME280;1994;48.640;8.894;2022-09-27T13:33:50;94674.97;;;12.74;78.66
3960;BME280;1994;48.640;8.894;2022-09-27T13:44:52;94679.06;;;12.80;74.22
3960;BME280;1994;48.640;8.894;2022-09-27T13:47:34;94667.41;;;12.59;73.13
3960;BME280;1994;48.640;8.894;2022-09-27T13:53:37;94683.94;;;12.02;71.89
3960;BME280;1994;48.640;8.894;2022-09-27T13:56:05;94679.41;;;12.13;74.17
3960;BME280;1994;48.640;8.894;2022-09-27T13:58:56;94669.69;;;12.00;74.39
3960;BME280;1994;48.640;8.894;2022-09-27T14:01:39;94674.25;;;12.08;71.70
3960;BME280;1994;48.640;8.894;2022-09-27T14:04:24;94674.03;;;12.28;72.48
3960;BME280;1994;48.640;8.894;2022-09-27T14:06:59;94682.94;;;12.22;72.10
3960;BME280;1994;48.640;8.894;2022-09-27T14:09:33;94690.13;;;11.83;72.68
3960;BME280;1994;48.640;8.894;2022-09-27T14:12:07;94684.00;;;12.21;74.05
3960;BME280;1994;48.640;8.894;2022-09-27T14:14:35;94691.56;;;12.17;72.97
3960;BME280;1994;48.640;8.894;2022-09-27T14:17:06;94680.34;;;12.64;73.60
3960;BME280;1994;48.640;8.894;2022-09-27T14:19:32;94692.53;;;12.45;71.80
3960;BME280;1994;48.640;8.894;2022-09-27T14:22:19;94694.63;;;12.43;72.69
3960;BME280;1994;48.640;8.894;2022-09-27T14:24:52;94683.53;;;12.56;71.62
3960;BME280;1994;48.640;8.894;2022-09-27T14:32:18;94678.63;;;11.65;73.04
3960;BME280;1994;48.640;8.894;2022-09-27T14:34:45;94689.22;;;11.69;74.14
3960;BME280;1994;48.640;8.894;2022-09-27T14:37:29;94702.47;;;11.34;73.94
3960;BME280;1994;48.640;8.894;2022-09-27T14:39:57;94693.97;;;11.62;74.14
3960;BME280;1994;48.640;8.894;2022-09-27T14:42:27;94700.25;;;11.51;74.78
3960;BME280;1994;48.640;8.894;2022-09-27T14:44:59;94708.66;;;11.38;75.28
3960;BME280;1994;48.640;8.894;2022-09-27T14:47:26;94698.53;;;11.41;74.97
3960;BME280;1994;48.640;8.894;2022-09-27T14:49:59;94706.38;;;11.31;75.23
3960;BME280;1994;48.640;8.894;2022-09-27T14:52:33;94693.44;;;11.31;74.66
3960;BME280;1994;48.640;8.894;2022-09-27T14:55:17;94689.94;;;11.12;75.15
3960;BME280;1994;48.640;8.894;2022-09-27T14:58:01;94700.53;;;11.16;75.94
3960;BME280;1994;48.640;8.894;2022-09-27T15:00:32;94702.47;;;11.34;75.09
3960;BME280;1994;48.640;8.894;2022-09-27T15:03:03;94695.88;;;11.18;74.86
3960;BME280;1994;48.640;8.894;2022-09-27T15:05:33;94698.97;;;11.48;75.96
3960;BME280;1994;48.640;8.894;2022-09-27T15:08:03;94699.06;;;11.72;75.42
3960;BME280;1994;48.640;8.894;2022-09-27T15:10:34;94679.66;;;11.93;74.55
3960;BME280;1994;48.640;8.894;2022-09-27T15:13:02;94688.22;;;11.65;71.08
3960;BME280;1994;48.640;8.894;2022-09-27T15:15:35;94704.88;;;11.54;70.34
3960;BME280;1994;48.640;8.894;2022-09-27T15:18:39;94700.56;;;11.78;68.69
3960;BME280;1994;48.640;8.894;2022-09-27T15:21:08;94714.97;;;11.89;68.11
3960;BME280;1994;48.640;8.894;2022-09-27T15:23:44;94733.69;;;12.09;68.04
3960;BME280;1994;48.640;8.894;2022-09-27T15:26:25;94723.34;;;11.81;67.72
3960;BME280;1994;48.640;8.894;2022-09-27T15:28:58;94729.09;;;11.78;68.36
3960;BME280;1994;48.640;8.894;2022-09-27T15:31:32;94710.59;;;11.56;68.40
3960;BME280;1994;48.640;8.894;2022-09-27T15:34:00;94727.03;;;11.75;68.77
3960;BME280;1994;48.640;8.894;2022-09-27T15:39:29;94725.84;;;11.91;68.45
3960;BME280;1994;48.640;8.894;2022-09-27T15:44:43;94723.28;;;11.86;69.34
3960;BME280;1994;48.640;8.894;2022-09-27T15:49:58;94726.53;;;11.73;69.00
3960;BME280;1994;48.640;8.894;2022-09-27T15:52:44;94735.72;;;11.89;68.50
3960;BME280;1994;48.640;8.894;2022-09-27T15:55:13;94744.75;;;11.68;69.03
3960;BME280;1994;48.640;8.894;2022-09-27T15:57:40;94747.25;;;11.78;69.30
3960;BME280;1994;48.640;8.894;2022-09-27T16:00:12;94755.03;;;11.78;68.96
3960;BME280;1994;48.640;8.894;2022-09-27T16:02:38;94761.31;;;11.72;68.82
3960;BME280;1994;48.640;8.894;2022-09-27T16:05:05;94758.25;;;11.65;69.27
3960;BME280;1994;48.640;8.894;2022-09-27T16:07:30;94758.28;;;11.60;69.42
3960;BME280;1994;48.640;8.894;2022-09-27T16:09:56;94747.72;;;11.13;69.65
3960;BME280;1994;48.640;8.894;2022-09-27T16:12:22;94763.19;;;11.28;70.75
3960;BME280;1994;48.640;8.894;2022-09-27T16:14:48;94756.13;;;11.33;70.43
3960;BME280;1994;48.640;8.894;2022-09-27T16:17:13;94766.31;;;11.25;71.11
3960;BME280;1994;48.640;8.894;2022-09-27T16:19:39;94758.69;;;11.00;71.21
3960;BME280;1994;48.640;8.894;2022-09-27T16:22:05;94751.72;;;10.95;71.41
3960;BME280;1994;48.640;8.894;2022-09-27T16:24:31;94766.63;;;10.70;73.55
3960;BME280;1994;48.640;8.894;2022-09-27T16:26:58;94762.78;;;10.57;75.43
3960;BME280;1994;48.640;8.894;2022-09-27T16:29:23;94764.66;;;10.47;76.00
3960;BME280;1994;48.640;8.894;2022-09-27T16:31:49;94762.09;;;10.42;76.33
3960;BME280;1994;48.640;8.894;2022-09-27T16:34:15;94776.13;;;10.26;77.41
3960;BME280;1994;48.640;8.894;2022-09-27T16:36:42;94775.63;;;10.24;78.84
3960;BME280;1994;48.640;8.894;2022-09-27T16:39:11;94768.88;;;10.18;80.01
3960;BME280;1994;48.640;8.894;2022-09-27T16:41:38;94770.72;;;10.17;78.94
3960;BME280;1994;48.640;8.894;2022-09-27T16:44:08;94765.78;;;10.11;78.50